createdAt,value
2023-10-26T00:01:30.192Z,99455.22
2023-10-26T00:03:58.873Z,99457.81
2023-10-26T00:06:27.492Z,99463.19
2023-10-26T00:08:55.931Z,99464.00
2023-10-26T00:11:24.429Z,99465.47
2023-10-26T00:13:52.852Z,99463.28
2023-10-26T00:16:21.317Z,99472.59
2023-10-26T00:18:49.867Z,99462.06
2023-10-26T00:21:18.521Z,99479.63
2023-10-26T00:23:47.138Z,99472.63
2023-10-26T00:26:15.610Z,99476.28
2023-10-26T00:28:44.126Z,99479.56
2023-10-26T00:31:12.584Z,99485.63
2023-10-26T00:33:41.081Z,99486.00
2023-10-26T00:36:09.574Z,99488.25
2023-10-26T00:38:38.063Z,99488.94
2023-10-26T00:41:06.541Z,99498.22
2023-10-26T00:43:35.035Z,99498.19
2023-10-26T00:46:04.631Z,99501.34
2023-10-26T00:48:33.120Z,99505.59
2023-10-26T00:51:01.589Z,99500.81
2023-10-26T00:53:30.106Z,99504.66
2023-10-26T00:55:58.654Z,99512.16
2023-10-26T00:58:28.234Z,99508.19
2023-10-26T01:00:57.165Z,99515.16
2023-10-26T01:03:30.782Z,99513.22
2023-10-26T01:05:59.986Z,99514.72
2023-10-26T01:08:28.577Z,99524.56
2023-10-26T01:10:58.587Z,99517.50
2023-10-26T01:13:27.338Z,99521.00
2023-10-26T01:15:55.805Z,99518.84
2023-10-26T01:18:24.638Z,99527.72
2023-10-26T01:20:55.248Z,99519.75
2023-10-26T01:23:23.806Z,99515.69
2023-10-26T01:25:55.664Z,99523.28
2023-10-26T01:28:24.657Z,99520.09
2023-10-26T01:30:53.822Z,99529.38
2023-10-26T01:33:22.549Z,99525.28
2023-10-26T01:35:51.260Z,99527.75
2023-10-26T01:38:19.746Z,99523.69
2023-10-26T01:40:50.050Z,99522.28
2023-10-26T01:43:18.850Z,99526.72
2023-10-26T01:45:47.309Z,99533.00
2023-10-26T01:48:15.915Z,99522.59
2023-10-26T01:50:44.550Z,99527.81
2023-10-26T01:53:13.018Z,99528.06
2023-10-26T01:55:42.279Z,99527.50
2023-10-26T01:58:10.733Z,99524.50
2023-10-26T02:00:39.188Z,99532.13
2023-10-26T02:03:07.758Z,99531.31
2023-10-26T02:05:36.371Z,99526.97
2023-10-26T02:08:05.068Z,99527.78
2023-10-26T02:10:33.664Z,99517.97
2023-10-26T02:13:02.111Z,99525.31
2023-10-26T02:15:30.600Z,99514.94
2023-10-26T02:17:59.114Z,99520.16
2023-10-26T02:20:27.613Z,99522.56
2023-10-26T02:22:56.047Z,99522.03
2023-10-26T02:25:24.552Z,99519.84
2023-10-26T02:27:53.239Z,99517.38
2023-10-26T02:30:21.675Z,99517.13
2023-10-26T02:32:50.427Z,99506.75
2023-10-26T02:35:21.860Z,99513.31
2023-10-26T02:37:50.317Z,99506.47
2023-10-26T02:40:18.957Z,99510.59
2023-10-26T02:42:47.422Z,99517.94
2023-10-26T02:45:15.917Z,99512.75
2023-10-26T02:47:44.523Z,99520.97
2023-10-26T02:50:13.150Z,99516.88
2023-10-26T02:52:41.944Z,99516.59
2023-10-26T02:55:10.546Z,99516.56
2023-10-26T02:57:38.951Z,99519.03
2023-10-26T03:00:08.121Z,99519.03
2023-10-26T03:02:36.770Z,99513.56
2023-10-26T03:05:05.658Z,99518.53
2023-10-26T03:07:34.555Z,99502.13
2023-10-26T03:10:03.690Z,99507.84
2023-10-26T03:12:32.262Z,99509.47
2023-10-26T03:15:01.348Z,99519.56
2023-10-26T03:17:29.991Z,99517.97
2023-10-26T03:19:58.554Z,99529.16
2023-10-26T03:22:27.064Z,99528.88
2023-10-26T03:24:55.573Z,99522.88
2023-10-26T03:27:24.033Z,99521.22
2023-10-26T03:29:52.724Z,99527.22
2023-10-26T03:32:21.301Z,99516.59
2023-10-26T03:34:50.111Z,99516.59
2023-10-26T03:37:18.903Z,99512.22
2023-10-26T03:39:47.502Z,99509.22
2023-10-26T03:42:15.966Z,99494.47
2023-10-26T03:44:44.658Z,99504.31
2023-10-26T03:47:13.916Z,99503.19
2023-10-26T03:49:42.744Z,99505.31
2023-10-26T03:52:11.439Z,99500.66
2023-10-26T03:54:40.264Z,99488.41
2023-10-26T03:57:08.872Z,99484.59
2023-10-26T03:59:37.292Z,99476.13
2023-10-26T04:02:06.112Z,99475.31
2023-10-26T04:04:34.741Z,99473.13
2023-10-26T04:07:03.342Z,99474.22
2023-10-26T04:09:31.917Z,99472.31
2023-10-26T04:12:00.484Z,99476.16
2023-10-26T04:14:29.091Z,99466.56
2023-10-26T04:16:57.696Z,99466.84
2023-10-26T04:19:26.350Z,99471.50
2023-10-26T04:21:54.744Z,99486.78
2023-10-26T04:24:23.328Z,99478.59
2023-10-26T04:26:51.829Z,99493.28
2023-10-26T04:29:20.309Z,99483.22
2023-10-26T04:31:48.846Z,99490.31
2023-10-26T04:34:17.437Z,99487.28
2023-10-26T04:36:45.947Z,99500.38
2023-10-26T04:39:16.850Z,99490.28
2023-10-26T04:41:45.514Z,99486.22
2023-10-26T04:44:14.570Z,99481.84
2023-10-26T04:46:43.037Z,99483.22
2023-10-26T04:49:11.531Z,99479.94
2023-10-26T04:51:39.981Z,99488.41
2023-10-26T04:54:08.473Z,99480.50
2023-10-26T04:56:36.983Z,99486.75
2023-10-26T04:59:05.478Z,99481.28
2023-10-26T05:01:34.041Z,99472.84
2023-10-26T05:04:02.551Z,99486.88
2023-10-26T05:06:31.178Z,99484.03
2023-10-26T05:09:00.854Z,99484.31
2023-10-26T05:11:30.052Z,99477.88
2023-10-26T05:13:58.600Z,99478.44
2023-10-26T05:16:27.061Z,99471.03
2023-10-26T05:18:55.665Z,99463.72
2023-10-26T05:21:24.150Z,99472.09
2023-10-26T05:23:52.648Z,99464.19
2023-10-26T05:26:21.096Z,99471.56
2023-10-26T05:28:49.535Z,99465.84
2023-10-26T05:31:17.991Z,99460.41
2023-10-26T05:33:47.954Z,99469.69
2023-10-26T05:36:16.654Z,99464.78
2023-10-26T05:38:47.270Z,99458.19
2023-10-26T05:41:15.887Z,99459.75
2023-10-26T05:43:44.374Z,99460.34
2023-10-26T05:46:14.030Z,99464.19
2023-10-26T05:48:42.596Z,99470.16
2023-10-26T05:51:13.381Z,99464.44
2023-10-26T05:53:41.847Z,99462.69
2023-10-26T05:56:11.866Z,99450.19
2023-10-26T05:58:40.280Z,99447.22
2023-10-26T06:01:08.847Z,99449.41
2023-10-26T06:03:37.748Z,99450.63
2023-10-26T06:06:06.706Z,99459.97
2023-10-26T06:08:35.291Z,99447.19
2023-10-26T06:11:04.486Z,99454.38
2023-10-26T06:13:33.059Z,99446.72
2023-10-26T06:16:01.592Z,99448.13
2023-10-26T06:18:30.226Z,99447.31
2023-10-26T06:21:00.291Z,99445.91
2023-10-26T06:23:29.292Z,99445.44
2023-10-26T06:26:02.519Z,99446.09
2023-10-26T06:28:31.242Z,99444.41
2023-10-26T06:31:15.537Z,99448.91
2023-10-26T06:33:44.462Z,99438.56
2023-10-26T06:36:13.120Z,99448.41
2023-10-26T06:38:43.185Z,99453.69
2023-10-26T06:41:12.084Z,99453.28
2023-10-26T06:43:40.545Z,99451.09
2023-10-26T06:46:09.208Z,99448.97
2023-10-26T06:48:37.766Z,99448.41
2023-10-26T06:51:07.555Z,99451.94
2023-10-26T06:53:36.653Z,99453.25
2023-10-26T06:56:14.598Z,99437.13
2023-10-26T06:58:44.415Z,99440.13
2023-10-26T07:01:19.753Z,99433.66
2023-10-26T07:03:51.701Z,99438.25
2023-10-26T07:06:20.925Z,99434.19
2023-10-26T07:08:56.248Z,99434.22
2023-10-26T07:11:25.497Z,99433.72
2023-10-26T07:13:54.092Z,99428.56
2023-10-26T07:16:22.811Z,99441.66
2023-10-26T07:18:52.167Z,99438.97
2023-10-26T07:21:20.793Z,99439.25
2023-10-26T07:23:49.295Z,99436.53
2023-10-26T07:26:19.727Z,99440.31
2023-10-26T07:28:48.535Z,99438.03
2023-10-26T07:31:18.939Z,99436.19
2023-10-26T07:33:47.764Z,99440.78
2023-10-26T07:36:16.278Z,99437.78
2023-10-26T07:38:44.931Z,99435.91
2023-10-26T07:41:13.600Z,99445.16
2023-10-26T07:43:42.135Z,99435.81
2023-10-26T07:46:10.600Z,99435.25
2023-10-26T07:48:39.087Z,99443.63
2023-10-26T07:51:07.593Z,99442.81
2023-10-26T07:53:36.092Z,99448.09
2023-10-26T07:56:04.923Z,99453.56
2023-10-26T07:58:34.480Z,99453.91
2023-10-26T08:01:09.718Z,99454.63
2023-10-26T08:03:38.456Z,99459.53
2023-10-26T08:06:09.510Z,99467.22
2023-10-26T08:08:38.162Z,99468.91
2023-10-26T08:11:11.389Z,99466.91
2023-10-26T08:13:40.057Z,99470.72
2023-10-26T08:16:38.915Z,99470.78
2023-10-26T08:18:57.452Z,99470.28
2023-10-26T08:21:26.123Z,99473.06
2023-10-26T08:23:54.660Z,99479.56
2023-10-26T08:26:23.099Z,99480.97
2023-10-26T08:28:53.394Z,99482.09
2023-10-26T08:31:28.344Z,99476.00
2023-10-26T08:33:56.879Z,99467.84
2023-10-26T08:36:25.443Z,99471.81
2023-10-26T08:38:53.927Z,99470.69
2023-10-26T08:41:22.614Z,99474.03
2023-10-26T08:43:51.972Z,99478.47
2023-10-26T08:46:20.644Z,99471.38
2023-10-26T08:48:50.656Z,99472.44
2023-10-26T08:51:19.242Z,99474.63
2023-10-26T08:53:48.169Z,99482.91
2023-10-26T08:56:19.181Z,99480.75
2023-10-26T08:58:49.444Z,99465.66
2023-10-26T09:01:17.983Z,99465.88
2023-10-26T09:03:46.588Z,99468.19
2023-10-26T09:06:15.153Z,99474.25
2023-10-26T09:08:43.944Z,99471.75
2023-10-26T09:11:22.347Z,99473.13
2023-10-26T09:13:51.506Z,99463.31
2023-10-26T09:16:36.085Z,99463.47
2023-10-26T09:19:06.115Z,99459.25
2023-10-26T09:21:55.361Z,99453.81
2023-10-26T09:24:26.125Z,99455.78
2023-10-26T09:27:04.771Z,99462.84
2023-10-26T09:29:40.602Z,99462.47
2023-10-26T09:32:10.333Z,99462.34
2023-10-26T09:34:44.293Z,99472.59
2023-10-26T09:37:13.152Z,99481.88
2023-10-26T09:39:44.664Z,99478.06
2023-10-26T09:42:13.487Z,99471.53
2023-10-26T09:44:42.229Z,99460.63
2023-10-26T09:47:12.222Z,99461.53
2023-10-26T09:49:42.410Z,99456.50
2023-10-26T09:52:11.129Z,99452.41
2023-10-26T09:54:41.816Z,99453.81
2023-10-26T09:57:18.371Z,99455.16
2023-10-26T09:59:53.057Z,99445.59
2023-10-26T10:02:22.064Z,99440.94
2023-10-26T10:04:50.887Z,99450.22
2023-10-26T10:07:40.360Z,99436.56
2023-10-26T10:10:10.414Z,99438.78
2023-10-26T10:12:40.066Z,99433.03
2023-10-26T10:17:44.179Z,99432.75
2023-10-26T10:20:18.861Z,99427.47
2023-10-26T10:22:48.669Z,99416.25
2023-10-26T10:25:21.097Z,99416.78
2023-10-26T10:27:49.691Z,99406.47
2023-10-26T10:30:29.472Z,99408.19
2023-10-26T10:32:58.437Z,99398.09
2023-10-26T10:35:51.057Z,99411.47
2023-10-26T10:38:21.926Z,99415.00
2023-10-26T10:40:56.897Z,99413.13
2023-10-26T10:43:44.329Z,99412.56
2023-10-26T10:46:17.636Z,99412.56
2023-10-26T10:49:06.798Z,99404.63
2023-10-26T10:51:36.218Z,99400.84
2023-10-26T10:56:50.851Z,99394.28
2023-10-26T10:59:27.274Z,99386.38
2023-10-26T11:02:13.362Z,99376.47
2023-10-26T11:05:18.076Z,99382.03
2023-10-26T11:07:49.175Z,99387.72
2023-10-26T11:10:19.202Z,99393.44
2023-10-26T11:12:51.695Z,99382.50
2023-10-26T11:15:20.557Z,99385.53
2023-10-26T11:17:49.413Z,99379.00
2023-10-26T11:20:47.074Z,99367.19
2023-10-26T11:23:17.721Z,99373.44
2023-10-26T11:25:46.596Z,99372.63
2023-10-26T11:28:15.352Z,99371.09
2023-10-26T11:30:49.804Z,99366.97
2023-10-26T11:33:32.702Z,99366.69
2023-10-26T11:36:11.459Z,99363.97
2023-10-26T11:38:48.332Z,99375.41
2023-10-26T11:41:23.942Z,99381.47
2023-10-26T11:43:52.732Z,99383.56
2023-10-26T11:46:31.050Z,99373.81
2023-10-26T11:49:00.387Z,99379.25
2023-10-26T11:51:29.453Z,99378.19
2023-10-26T11:54:11.592Z,99378.25
2023-10-26T11:56:40.113Z,99376.31
2023-10-26T11:59:08.664Z,99386.16
2023-10-26T12:01:37.133Z,99383.41
2023-10-26T12:04:12.088Z,99385.06
2023-10-26T12:06:40.710Z,99380.44
2023-10-26T12:09:09.758Z,99385.81
2023-10-26T12:11:41.013Z,99378.16
2023-10-26T12:14:09.677Z,99374.88
2023-10-26T12:16:38.827Z,99370.69
2023-10-26T12:19:10.188Z,99364.63
2023-10-26T12:21:38.627Z,99364.13
2023-10-26T12:24:07.273Z,99355.59
2023-10-26T12:26:35.856Z,99362.91
2023-10-26T12:29:04.709Z,99357.41
2023-10-26T12:31:34.544Z,99362.09
2023-10-26T12:34:03.213Z,99357.69
2023-10-26T12:36:34.781Z,99359.53
2023-10-26T12:39:04.358Z,99341.78
2023-10-26T12:41:32.838Z,99345.00
2023-10-26T12:44:01.274Z,99347.78
2023-10-26T12:46:29.779Z,99345.78
2023-10-26T12:48:58.331Z,99348.38
2023-10-26T12:51:26.816Z,99354.06
2023-10-26T12:53:57.493Z,99354.00
2023-10-26T12:56:28.197Z,99342.13
2023-10-26T12:58:56.716Z,99348.22
2023-10-26T13:01:25.973Z,99355.06
2023-10-26T13:03:56.449Z,99349.59
2023-10-26T13:06:25.155Z,99338.41
2023-10-26T13:08:53.553Z,99333.84
2023-10-26T13:11:22.022Z,99327.63
2023-10-26T13:13:50.427Z,99333.47
2023-10-26T13:16:20.315Z,99328.72
2023-10-26T13:18:49.865Z,99339.84
2023-10-26T13:21:19.260Z,99332.13
2023-10-26T13:23:48.200Z,99331.34
2023-10-26T13:26:16.783Z,99321.19
2023-10-26T13:28:45.280Z,99315.50
2023-10-26T13:31:13.757Z,99322.13
2023-10-26T13:33:42.289Z,99313.94
2023-10-26T13:36:10.735Z,99313.09
2023-10-26T13:38:39.286Z,99318.72
2023-10-26T13:41:08.298Z,99311.34
2023-10-26T13:43:36.801Z,99308.75
2023-10-26T13:46:06.942Z,99316.06
2023-10-26T13:48:35.562Z,99321.31
2023-10-26T13:51:04.053Z,99316.22
2023-10-26T13:53:32.631Z,99312.00
2023-10-26T13:56:02.301Z,99315.59
2023-10-26T13:58:30.748Z,99319.84
2023-10-26T14:00:59.383Z,99312.75
2023-10-26T14:03:27.874Z,99308.66
2023-10-26T14:05:57.308Z,99305.72
2023-10-26T14:08:32.626Z,99303.97
2023-10-26T14:11:01.823Z,99303.91
2023-10-26T14:13:31.484Z,99301.03
2023-10-26T14:16:00.167Z,99298.00
2023-10-26T14:18:28.833Z,99288.50
2023-10-26T14:20:57.850Z,99279.94
2023-10-26T14:23:26.287Z,99280.78
2023-10-26T14:25:54.717Z,99283.34
2023-10-26T14:28:23.185Z,99288.63
2023-10-26T14:30:51.725Z,99288.63
2023-10-26T14:33:20.268Z,99286.41
2023-10-26T14:35:52.313Z,99270.03
2023-10-26T14:38:20.867Z,99273.91
2023-10-26T14:40:56.277Z,99269.03
2023-10-26T14:43:25.786Z,99269.06
2023-10-26T14:45:54.435Z,99264.81
2023-10-26T14:48:22.973Z,99263.19
2023-10-26T14:50:59.649Z,99250.06
2023-10-26T14:53:28.309Z,99250.00
2023-10-26T14:56:05.199Z,99235.38
2023-10-26T14:58:33.795Z,99242.25
2023-10-26T15:01:02.337Z,99242.25
2023-10-26T15:03:30.939Z,99243.84
2023-10-26T15:06:02.228Z,99253.91
2023-10-26T15:08:30.787Z,99242.81
2023-10-26T15:11:24.150Z,99238.88
2023-10-26T15:13:49.874Z,99235.16
2023-10-26T15:16:19.017Z,99235.63
2023-10-26T15:18:47.567Z,99233.94
2023-10-26T15:21:16.235Z,99227.28
2023-10-26T15:23:44.736Z,99232.59
2023-10-26T15:26:13.317Z,99227.28
2023-10-26T15:28:41.784Z,99220.09
2023-10-26T15:31:11.139Z,99219.00
2023-10-26T15:33:40.547Z,99222.91
2023-10-26T15:36:09.180Z,99213.06
2023-10-26T15:38:42.101Z,99216.69
2023-10-26T15:41:11.561Z,99226.69
2023-10-26T15:43:40.020Z,99227.31
2023-10-26T15:46:09.557Z,99225.75
2023-10-26T15:49:32.658Z,99218.69
2023-10-26T15:51:26.559Z,99218.34
2023-10-26T15:53:55.019Z,99225.47
2023-10-26T15:56:23.405Z,99228.94
2023-10-26T15:58:52.730Z,99231.97
2023-10-26T16:01:21.689Z,99227.06
2023-10-26T16:03:50.291Z,99233.59
2023-10-26T16:06:19.957Z,99227.06
2023-10-26T16:08:49.682Z,99225.47
2023-10-26T16:11:18.046Z,99242.03
2023-10-26T16:13:47.191Z,99236.50
2023-10-26T16:16:15.775Z,99234.63
2023-10-26T16:18:47.598Z,99241.19
2023-10-26T16:21:17.022Z,99244.31
2023-10-26T16:23:45.512Z,99249.00
2023-10-26T16:26:14.069Z,99239.19
2023-10-26T16:28:42.551Z,99245.97
2023-10-26T16:31:11.097Z,99251.44
2023-10-26T16:33:39.658Z,99254.50
2023-10-26T16:36:08.205Z,99256.06
2023-10-26T16:38:36.742Z,99250.59
2023-10-26T16:41:05.328Z,99251.03
2023-10-26T16:43:33.778Z,99244.31
2023-10-26T16:46:02.595Z,99246.69
2023-10-26T16:48:33.250Z,99250.03
2023-10-26T16:51:02.036Z,99248.50
2023-10-26T16:53:32.383Z,99249.50
2023-10-26T16:56:03.071Z,99245.09
2023-10-26T16:58:35.370Z,99245.50
2023-10-26T17:01:11.741Z,99254.19
2023-10-26T17:03:40.678Z,99255.84
2023-10-26T17:06:10.710Z,99248.53
2023-10-26T17:08:39.197Z,99250.41
2023-10-26T17:11:09.782Z,99243.56
2023-10-26T17:13:38.226Z,99229.81
2023-10-26T17:16:07.908Z,99231.44
2023-10-26T17:18:36.577Z,99243.81
2023-10-26T17:21:05.155Z,99241.00
2023-10-26T17:23:33.679Z,99245.91
2023-10-26T17:26:02.225Z,99250.47
2023-10-26T17:28:30.618Z,99243.13
2023-10-26T17:31:06.654Z,99241.53
2023-10-26T17:33:36.199Z,99241.75
2023-10-26T17:36:05.143Z,99252.84
2023-10-26T17:38:33.746Z,99245.41
2023-10-26T17:41:13.138Z,99236.78
2023-10-26T17:43:41.607Z,99239.75
2023-10-26T17:46:10.155Z,99234.06
2023-10-26T17:48:38.911Z,99237.25
2023-10-26T17:51:09.624Z,99235.66
2023-10-26T17:53:41.582Z,99226.53
2023-10-26T17:56:13.480Z,99221.59
2023-10-26T17:58:42.762Z,99221.06
2023-10-26T18:01:12.085Z,99223.56
2023-10-26T18:03:41.057Z,99220.69
2023-10-26T18:06:09.499Z,99221.75
2023-10-26T18:08:41.286Z,99217.00
2023-10-26T18:11:09.808Z,99229.28
2023-10-26T18:13:38.324Z,99222.16
2023-10-26T18:16:08.533Z,99213.84
2023-10-26T18:18:38.860Z,99210.94
2023-10-26T18:21:08.862Z,99208.06
2023-10-26T18:23:37.600Z,99211.97
2023-10-26T18:26:08.348Z,99213.09
2023-10-26T18:28:38.697Z,99200.84
2023-10-26T18:31:12.263Z,99197.03
2023-10-26T18:33:45.547Z,99197.50
2023-10-26T18:36:17.078Z,99193.28
2023-10-26T18:38:46.366Z,99195.66
2023-10-26T18:41:33.046Z,99203.13
2023-10-26T18:44:01.905Z,99195.38
2023-10-26T18:46:30.583Z,99205.75
2023-10-26T18:48:59.337Z,99203.47
2023-10-26T18:51:27.903Z,99199.16
2023-10-26T18:53:56.773Z,99200.44
2023-10-26T18:56:25.333Z,99203.50
2023-10-26T18:58:54.248Z,99207.25
2023-10-26T19:01:25.389Z,99210.19
2023-10-26T19:06:27.042Z,99206.19
2023-10-26T19:08:55.565Z,99204.03
2023-10-26T19:11:24.083Z,99203.66
2023-10-26T19:13:52.735Z,99203.41
2023-10-26T19:16:21.579Z,99192.78
2023-10-26T19:18:50.178Z,99198.41
2023-10-26T19:21:18.729Z,99197.53
2023-10-26T19:23:47.277Z,99204.97
2023-10-26T19:26:15.771Z,99201.88
2023-10-26T19:28:44.265Z,99203.00
2023-10-26T19:31:13.341Z,99216.19
2023-10-26T19:33:43.495Z,99210.31
2023-10-26T19:36:12.360Z,99207.47
2023-10-26T19:38:40.782Z,99207.00
2023-10-26T19:41:13.644Z,99197.81
2023-10-26T19:43:42.092Z,99189.75
2023-10-26T19:46:10.960Z,99197.47
2023-10-26T19:48:40.468Z,99191.81
2023-10-26T19:51:08.952Z,99183.59
2023-10-26T19:53:37.472Z,99189.06
2023-10-26T19:56:06.226Z,99198.25
2023-10-26T19:58:34.698Z,99196.63
2023-10-26T20:01:05.755Z,99191.34
2023-10-26T20:03:34.248Z,99195.56
2023-10-26T20:06:06.823Z,99188.06
2023-10-26T20:08:36.931Z,99190.72
2023-10-26T20:11:05.675Z,99187.09
2023-10-26T20:13:34.189Z,99184.47
2023-10-26T20:16:04.032Z,99174.44
2023-10-26T20:18:39.881Z,99175.25
2023-10-26T20:21:09.287Z,99171.81
2023-10-26T20:23:37.741Z,99176.41
2023-10-26T20:26:06.212Z,99173.09
2023-10-26T20:28:35.531Z,99175.19
2023-10-26T20:31:04.762Z,99176.56
2023-10-26T20:33:33.323Z,99175.59
2023-10-26T20:36:01.857Z,99165.31
2023-10-26T20:38:30.383Z,99163.84
2023-10-26T20:40:59.196Z,99163.34
2023-10-26T20:43:27.800Z,99160.13
2023-10-26T20:45:57.945Z,99163.63
2023-10-26T20:48:26.935Z,99162.03
2023-10-26T20:50:57.241Z,99151.75
2023-10-26T20:53:28.940Z,99153.25
2023-10-26T20:55:59.090Z,99152.41
2023-10-26T20:58:29.021Z,99152.75
2023-10-26T21:00:57.735Z,99146.66
2023-10-26T21:03:26.544Z,99131.06
2023-10-26T21:06:02.808Z,99142.75
2023-10-26T21:08:31.653Z,99139.84
2023-10-26T21:11:00.718Z,99121.63
2023-10-26T21:13:29.985Z,99118.31
2023-10-26T21:16:00.648Z,99125.66
2023-10-26T21:18:29.133Z,99122.47
2023-10-26T21:20:57.595Z,99132.44
2023-10-26T21:23:26.197Z,99128.28
2023-10-26T21:25:54.668Z,99121.88
2023-10-26T21:28:24.830Z,99117.81
2023-10-26T21:30:54.744Z,99108.25
2023-10-26T21:33:23.323Z,99106.16
2023-10-26T21:35:52.506Z,99103.69
2023-10-26T21:38:21.012Z,99105.28
2023-10-26T21:40:50.748Z,99107.94
2023-10-26T21:43:19.305Z,99099.06
2023-10-26T21:45:47.855Z,99097.03
2023-10-26T21:48:16.502Z,99094.66
2023-10-26T21:50:45.000Z,99087.69
2023-10-26T21:53:15.919Z,99092.63
2023-10-26T21:55:45.948Z,99088.22
2023-10-26T21:58:14.411Z,99092.06
2023-10-26T22:00:42.864Z,99093.41
2023-10-26T22:03:11.469Z,99095.38
2023-10-26T22:05:39.963Z,99097.88
2023-10-26T22:08:08.407Z,99097.19
2023-10-26T22:10:37.091Z,99089.31
2023-10-26T22:13:06.231Z,99091.72
2023-10-26T22:15:34.758Z,99088.94
2023-10-26T22:18:03.430Z,99090.78
2023-10-26T22:20:32.067Z,99086.34
2023-10-26T22:23:00.994Z,99081.84
2023-10-26T22:25:29.535Z,99087.66
2023-10-26T22:27:58.651Z,99071.25
2023-10-26T22:30:27.892Z,99075.06
2023-10-26T22:32:56.444Z,99067.88
2023-10-26T22:35:25.041Z,99066.16
2023-10-26T22:37:53.706Z,99065.16
2023-10-26T22:40:22.324Z,99063.06
2023-10-26T22:42:50.842Z,99057.22
2023-10-26T22:45:19.704Z,99056.94
2023-10-26T22:47:48.248Z,99054.66
2023-10-26T22:50:16.804Z,99053.31
2023-10-26T22:52:45.284Z,99048.97
2023-10-26T22:55:13.836Z,99045.88
2023-10-26T22:57:42.948Z,99047.06
2023-10-26T23:00:14.535Z,99045.38
2023-10-26T23:02:43.051Z,99044.72
2023-10-26T23:05:11.539Z,99039.09
2023-10-26T23:07:40.002Z,99048.91
2023-10-26T23:10:09.066Z,99050.72
2023-10-26T23:12:37.590Z,99042.41
2023-10-26T23:15:06.632Z,99047.50
2023-10-26T23:17:35.177Z,99043.44
2023-10-26T23:20:03.936Z,99034.13
2023-10-26T23:22:32.840Z,99042.78
2023-10-26T23:25:01.295Z,99037.31
2023-10-26T23:27:29.785Z,99034.31
2023-10-26T23:30:00.881Z,99028.28
2023-10-26T23:32:29.709Z,99035.91
2023-10-26T23:34:58.304Z,99030.66
2023-10-26T23:37:26.884Z,99024.22
2023-10-26T23:39:55.509Z,99020.59
2023-10-26T23:42:23.994Z,99021.34
2023-10-26T23:44:52.626Z,99014.59
2023-10-26T23:47:21.054Z,99017.03
2023-10-26T23:49:49.668Z,99011.00
2023-10-26T23:52:18.182Z,99010.09
2023-10-26T23:54:46.903Z,99012.28
2023-10-26T23:57:15.435Z,99020.81
2023-10-26T23:59:44.032Z,99010.03
